Time;durP1;ratioP1;P1;durP2;ratioP2;P2;SDS_P1;SDS_P2;PMS_P1;PMS_P2;Temp;Humidity;BMP_temperature;BMP_pressure;BME280_temperature;BME280_humidity;BME280_pressure;Samples;Min_cycle;Max_cycle;Signal;HPM_P1;HPM_P2
2021/05/22 00:00:47;;;;;;;2.57;1.27;;;;;;;10.29;81.67;99716.66;5029766;28;20221;-74
2021/05/22 00:03:13;;;;;;;2.40;1.40;;;;;;;10.23;82.07;99717.75;5033630;28;20688;-74
2021/05/22 00:05:39;;;;;;;1.30;1.20;;;;;;;10.21;82.36;99707.41;5036048;28;20257;-74
2021/05/22 00:08:06;;;;;;;1.90;1.20;;;;;;;10.28;82.47;99707.19;5037082;28;20202;-74
2021/05/22 00:10:32;;;;;;;1.20;1.10;;;;;;;10.30;82.31;99695.78;5036126;28;20227;-74
2021/05/22 00:12:58;;;;;;;2.90;1.37;;;;;;;10.25;82.34;99695.09;5031783;28;21616;-74
2021/05/22 00:15:25;;;;;;;1.57;1.10;;;;;;;10.20;83.00;99692.69;5034126;28;20205;-74
2021/05/22 00:17:51;;;;;;;1.27;1.17;;;;;;;10.14;82.70;99695.53;5035291;28;20284;-73
2021/05/22 00:20:17;;;;;;;2.10;1.10;;;;;;;10.11;82.57;99698.25;5038761;28;20221;-74
2021/05/22 00:22:44;;;;;;;1.30;1.07;;;;;;;10.05;83.06;99685.47;5033548;28;20997;-74
2021/05/22 00:26:48;;;;;;;1.80;1.10;;;;;;;10.02;83.80;99678.63;5079120;27;21085;-70
2021/05/22 00:29:17;;;;;;;1.60;1.47;;;;;;;9.97;83.83;99658.88;5054461;28;20216;-70
2021/05/22 00:31:43;;;;;;;1.47;1.37;;;;;;;9.94;83.54;99651.22;5047714;28;20211;-70
2021/05/22 00:34:09;;;;;;;1.33;1.20;;;;;;;9.92;83.84;99639.97;5041114;28;20732;-70
2021/05/22 00:36:35;;;;;;;1.30;1.10;;;;;;;9.87;84.13;99645.38;5043826;28;20248;-70
2021/05/22 00:39:01;;;;;;;1.47;1.37;;;;;;;9.84;84.25;99648.94;5041519;28;20274;-70
2021/05/22 00:41:27;;;;;;;1.37;1.03;;;;;;;9.81;84.54;99638.63;5045020;28;20593;-70
2021/05/22 00:43:54;;;;;;;1.83;1.30;;;;;;;9.76;84.09;99632.78;5045265;28;20597;-71
2021/05/22 00:46:19;;;;;;;1.77;1.23;;;;;;;9.74;84.98;99623.31;5042774;28;20236;-71
2021/05/22 00:48:45;;;;;;;1.83;1.10;;;;;;;9.72;85.21;99619.94;5042077;28;20316;-71
2021/05/22 00:51:11;;;;;;;1.27;1.17;;;;;;;9.67;85.56;99617.50;5041775;28;20215;-70
2021/05/22 00:53:38;;;;;;;1.40;1.30;;;;;;;9.65;85.16;99614.09;5044952;28;20205;-70
2021/05/22 00:56:04;;;;;;;1.40;1.30;;;;;;;9.62;85.58;99622.03;5049043;28;20200;-71
2021/05/22 00:58:31;;;;;;;1.50;1.33;;;;;;;9.63;85.81;99623.75;5044066;28;20224;-71
2021/05/22 01:00:59;;;;;;;1.17;1.07;;;;;;;9.61;85.35;99629.00;5045504;28;20201;-71
2021/05/22 01:03:27;;;;;;;1.60;1.27;;;;;;;9.59;85.13;99632.56;5041938;28;20206;-71
2021/05/22 01:06:04;;;;;;;1.50;1.40;;;;;;;9.57;85.32;99635.22;5039468;28;20210;-71
2021/05/22 01:08:30;;;;;;;2.10;1.33;;;;;;;9.56;85.66;99632.69;5079381;28;20214;-71
2021/05/22 01:10:59;;;;;;;2.83;1.30;;;;;;;9.51;85.99;99630.25;5043896;28;20191;-71
2021/05/22 01:13:28;;;;;;;1.60;1.50;;;;;;;9.52;87.02;99631.13;5042434;28;20192;-71
2021/05/22 01:15:55;;;;;;;1.50;1.40;;;;;;;9.47;86.53;99642.53;5037591;28;20199;-71
2021/05/22 01:18:23;;;;;;;2.27;1.40;;;;;;;9.45;87.51;99644.34;5039302;28;20403;-71
2021/05/22 01:20:54;;;;;;;1.67;1.57;;;;;;;9.41;87.53;99647.97;5048055;28;20721;-71
2021/05/22 01:23:34;;;;;;;3.20;1.50;;;;;;;9.43;87.98;99660.94;5047470;28;20563;-70
2021/05/22 01:26:01;;;;;;;1.80;1.17;;;;;;;9.46;87.79;99668.59;5041721;28;20227;-70
2021/05/22 01:28:28;;;;;;;4.60;1.40;;;;;;;9.48;88.57;99659.84;5042580;28;20284;-71
2021/05/22 01:30:54;;;;;;;1.90;1.50;;;;;;;9.57;88.58;99653.44;5041089;28;20215;-70
2021/05/22 01:33:21;;;;;;;1.43;1.23;;;;;;;9.63;88.34;99654.97;5043251;28;20267;-70
2021/05/22 01:35:49;;;;;;;1.67;1.20;;;;;;;9.70;87.97;99642.56;5042063;28;20211;-70
2021/05/22 01:38:15;;;;;;;1.20;1.10;;;;;;;9.76;87.66;99650.13;5033563;28;20246;-70
2021/05/22 01:40:41;;;;;;;1.33;1.23;;;;;;;9.79;87.71;99645.66;5030167;28;20229;-70
2021/05/22 01:43:09;;;;;;;2.53;1.50;;;;;;;9.82;87.81;99650.75;5027163;28;20192;-70
2021/05/22 01:45:37;;;;;;;1.53;1.40;;;;;;;9.88;87.06;99648.81;5025608;28;20220;-70
2021/05/22 01:48:06;;;;;;;1.70;1.37;;;;;;;9.92;86.37;99632.16;5032531;28;20210;-70
2021/05/22 01:50:34;;;;;;;1.63;1.53;;;;;;;9.97;86.40;99633.72;5028450;28;20758;-70
2021/05/22 01:53:02;;;;;;;2.00;1.40;;;;;;;10.01;86.21;99630.06;5030944;28;20562;-70
2021/05/22 01:55:33;;;;;;;1.40;1.30;;;;;;;10.04;86.08;99636.88;5026520;28;20204;-71
2021/05/22 01:57:59;;;;;;;1.80;1.37;;;;;;;10.06;85.92;99635.09;5034035;28;20216;-71
2021/05/22 02:00:27;;;;;;;2.13;1.23;;;;;;;10.07;85.96;99638.53;5027206;28;20590;-71
2021/05/22 02:02:57;;;;;;;1.90;1.57;;;;;;;10.08;86.16;99628.06;5039797;28;20659;-70
2021/05/22 02:05:25;;;;;;;2.17;1.40;;;;;;;10.10;86.28;99617.59;5026201;28;20268;-70
2021/05/22 02:07:53;;;;;;;2.37;1.40;;;;;;;10.13;85.91;99623.53;5035360;28;20614;-71
2021/05/22 02:10:20;;;;;;;2.67;1.27;;;;;;;10.15;85.63;99633.84;5026125;28;20644;-71
2021/05/22 02:12:47;;;;;;;3.60;1.60;;;;;;;10.15;85.87;99621.69;5030983;28;20204;-72
2021/05/22 02:15:15;;;;;;;3.33;1.50;;;;;;;10.18;85.47;99629.41;5024943;28;20325;-71
2021/05/22 02:17:44;;;;;;;1.93;1.23;;;;;;;10.23;85.34;99630.03;5034837;28;20252;-70
2021/05/22 02:20:11;;;;;;;2.57;1.33;;;;;;;10.24;85.58;99625.69;5025632;28;20825;-71
2021/05/22 02:22:41;;;;;;;2.03;1.20;;;;;;;10.29;85.71;99623.75;5032734;28;20214;-71
2021/05/22 02:25:08;;;;;;;3.50;1.40;;;;;;;10.33;85.00;99612.31;5027566;28;20221;-71
2021/05/22 02:27:35;;;;;;;1.83;1.00;;;;;;;10.34;85.03;99600.13;5064055;28;20226;-70
2021/05/22 02:30:02;;;;;;;1.83;1.43;;;;;;;10.36;84.68;99606.97;5057226;28;20238;-71
2021/05/22 02:32:29;;;;;;;1.77;1.30;;;;;;;10.36;85.58;99624.34;5028813;28;20238;-71
2021/05/22 02:34:57;;;;;;;1.77;1.43;;;;;;;10.37;85.05;99629.50;5028122;28;20661;-71
2021/05/22 02:37:27;;;;;;;1.53;1.33;;;;;;;10.40;85.12;99645.03;5062881;28;20250;-70
2021/05/22 02:39:57;;;;;;;1.20;1.10;;;;;;;10.44;85.20;99668.34;5025909;28;20224;-71
2021/05/22 02:42:24;;;;;;;1.27;1.10;;;;;;;10.46;84.94;99687.38;5023226;28;20211;-70
2021/05/22 02:44:52;;;;;;;2.00;1.37;;;;;;;10.45;84.61;99670.91;5027033;28;20204;-72
2021/05/22 02:47:20;;;;;;;1.30;1.20;;;;;;;10.47;84.83;99640.41;5034285;28;20268;-70
2021/05/22 02:49:47;;;;;;;2.37;1.40;;;;;;;10.47;84.92;99656.03;5022557;28;20781;-71
2021/05/22 02:52:18;;;;;;;2.27;1.10;;;;;;;10.46;84.78;99669.97;5027218;28;20270;-70
2021/05/22 02:54:47;;;;;;;1.43;1.13;;;;;;;10.47;84.88;99676.91;5025368;28;20192;-71
2021/05/22 02:57:14;;;;;;;1.53;1.40;;;;;;;10.47;85.12;99670.84;5025227;28;20204;-71
2021/05/22 02:59:41;;;;;;;1.53;1.13;;;;;;;10.47;85.23;99674.28;5026529;28;20220;-70
2021/05/22 03:02:07;;;;;;;1.53;1.20;;;;;;;10.46;85.55;99674.34;5026707;28;20231;-71
2021/05/22 03:04:34;;;;;;;1.20;1.10;;;;;;;10.47;84.83;99684.72;5026150;28;20208;-71
2021/05/22 03:07:01;;;;;;;1.43;1.30;;;;;;;10.46;84.92;99688.22;5027773;28;20668;-70
2021/05/22 03:09:29;;;;;;;1.43;1.17;;;;;;;10.46;84.37;99680.41;5025943;28;20298;-71
2021/05/22 03:11:55;;;;;;;1.47;1.30;;;;;;;10.45;84.58;99675.25;5027079;28;20226;-71
2021/05/22 03:14:21;;;;;;;2.10;1.20;;;;;;;10.42;84.71;99681.44;5028426;28;20205;-71
2021/05/22 03:16:47;;;;;;;1.23;1.13;;;;;;;10.44;83.64;99678.78;5028017;28;20297;-70
2021/05/22 03:19:12;;;;;;;1.97;1.20;;;;;;;10.42;83.66;99679.69;5027466;28;20310;-71
2021/05/22 03:21:38;;;;;;;1.63;1.37;;;;;;;10.40;84.13;99686.72;5032892;28;20208;-71
2021/05/22 03:24:06;;;;;;;1.20;1.10;;;;;;;10.39;84.32;99691.97;5027999;28;20223;-72
2021/05/22 03:26:33;;;;;;;1.23;1.00;;;;;;;10.37;84.25;99679.00;5027003;28;20211;-71
2021/05/22 03:28:59;;;;;;;1.43;1.30;;;;;;;10.37;84.02;99681.63;5032231;28;20234;-70
2021/05/22 03:31:25;;;;;;;3.17;1.10;;;;;;;10.34;84.22;99681.75;5025983;28;20554;-70
2021/05/22 03:33:51;;;;;;;1.33;0.97;;;;;;;10.31;84.34;99686.22;5030680;28;20452;-71
2021/05/22 03:36:17;;;;;;;1.73;1.20;;;;;;;10.31;84.52;99699.25;5029715;28;20210;-72
2021/05/22 03:38:43;;;;;;;1.70;0.97;;;;;;;10.29;84.24;99693.22;5027792;28;20222;-71
2021/05/22 03:41:09;;;;;;;1.83;1.40;;;;;;;10.32;84.57;99693.13;5024557;28;20211;-71
2021/05/22 03:43:36;;;;;;;1.50;1.30;;;;;;;10.32;84.73;99700.97;5025274;28;20627;-71
2021/05/22 03:46:02;;;;;;;3.13;1.33;;;;;;;10.32;84.49;99693.13;5024259;28;20211;-71
2021/05/22 03:48:28;;;;;;;1.40;1.00;;;;;;;10.30;85.10;99692.31;5033133;28;20227;-70
2021/05/22 03:50:56;;;;;;;1.00;0.90;;;;;;;10.30;84.57;99687.13;5029287;28;20227;-70
2021/05/22 03:53:22;;;;;;;1.30;1.17;;;;;;;10.31;84.85;99691.44;5027360;28;20196;-71
2021/05/22 03:55:48;;;;;;;2.10;1.10;;;;;;;10.32;84.93;99695.75;5025637;28;20305;-72
2021/05/22 03:58:15;;;;;;;1.20;1.10;;;;;;;10.34;84.76;99692.19;5013977;28;20211;-71
2021/05/22 04:00:41;;;;;;;1.13;0.87;;;;;;;10.38;84.65;99691.16;5023366;28;20206;-71
2021/05/22 04:03:07;;;;;;;1.20;1.10;;;;;;;10.40;84.53;99694.53;5030964;28;20238;-72
2021/05/22 04:05:34;;;;;;;2.77;0.93;;;;;;;10.42;84.63;99695.31;5025189;28;20215;-71
2021/05/22 04:08:00;;;;;;;2.67;1.10;;;;;;;10.44;84.09;99699.63;5038812;28;20207;-71
2021/05/22 04:10:26;;;;;;;1.80;1.10;;;;;;;10.49;83.75;99700.28;5025160;28;20204;-70
2021/05/22 04:12:52;;;;;;;1.10;1.00;;;;;;;10.50;83.77;99709.78;5033205;28;20674;-71
2021/05/22 04:15:18;;;;;;;1.17;1.07;;;;;;;10.52;83.54;99703.63;5024746;28;20585;-70
2021/05/22 04:17:44;;;;;;;1.30;1.10;;;;;;;10.53;84.09;99701.84;5026026;28;20254;-70
2021/05/22 04:20:11;;;;;;;1.77;1.20;;;;;;;10.55;84.31;99707.84;5010618;28;20728;-71
2021/05/22 04:22:38;;;;;;;1.27;1.00;;;;;;;10.57;84.23;99709.50;5027374;22;20236;-73
2021/05/22 04:25:05;;;;;;;1.37;1.10;;;;;;;10.58;84.05;99711.19;4998512;28;20228;-73
2021/05/22 04:27:30;;;;;;;1.37;1.17;;;;;;;10.63;83.97;99703.19;4996382;28;20197;-73
2021/05/22 04:29:56;;;;;;;1.37;1.27;;;;;;;10.69;82.91;99699.47;5000021;28;20304;-73
2021/05/22 04:32:22;;;;;;;4.13;1.20;;;;;;;10.74;83.59;99692.31;4998953;28;20196;-74
2021/05/22 04:34:49;;;;;;;1.33;1.10;;;;;;;10.82;83.15;99673.72;5000970;28;20204;-73
2021/05/22 04:37:15;;;;;;;1.10;1.00;;;;;;;10.88;82.50;99674.31;5002991;28;20204;-73
2021/05/22 04:39:41;;;;;;;1.10;1.00;;;;;;;10.95;82.80;99677.50;4997990;28;20490;-73
2021/05/22 04:42:07;;;;;;;1.63;1.00;;;;;;;10.99;84.56;99677.34;4993708;28;20295;-74
2021/05/22 04:44:33;;;;;;;1.23;1.10;;;;;;;10.93;84.99;99690.63;5000071;28;20197;-74
2021/05/22 04:46:59;;;;;;;1.13;1.03;;;;;;;10.92;86.79;99691.56;5011536;28;20720;-74
2021/05/22 04:49:27;;;;;;;1.30;0.90;;;;;;;10.92;86.78;99690.69;4998544;28;20252;-74
2021/05/22 04:51:55;;;;;;;0.90;0.90;;;;;;;10.91;86.61;99692.44;4999757;28;20203;-73
2021/05/22 04:54:21;;;;;;;1.87;1.00;;;;;;;10.91;86.37;99695.06;4980931;28;20663;-74
2021/05/22 04:56:47;;;;;;;0.90;0.90;;;;;;;10.91;86.07;99696.81;4985552;28;20192;-74
2021/05/22 04:59:13;;;;;;;1.33;1.00;;;;;;;10.88;85.83;99696.94;4980920;28;20204;-73
2021/05/22 05:01:40;;;;;;;2.73;1.00;;;;;;;10.87;86.38;99695.25;5008124;28;20196;-74
2021/05/22 05:04:06;;;;;;;1.53;1.00;;;;;;;10.93;86.61;99698.44;4999076;28;20280;-73
2021/05/22 05:06:32;;;;;;;1.10;0.90;;;;;;;10.99;86.28;99692.97;5006398;28;20307;-74
2021/05/22 05:08:59;;;;;;;1.30;1.00;;;;;;;11.08;85.99;99699.56;4995950;28;20685;-74
2021/05/22 05:11:25;;;;;;;2.43;0.90;;;;;;;11.14;85.50;99703.66;5006749;28;20220;-74
2021/05/22 05:13:51;;;;;;;1.00;1.00;;;;;;;11.22;84.90;99700.72;4998303;28;20197;-74
2021/05/22 05:16:17;;;;;;;2.13;0.90;;;;;;;11.31;84.73;99706.41;5005177;28;20220;-74
2021/05/22 05:18:43;;;;;;;1.03;0.90;;;;;;;11.41;84.32;99709.44;5002500;28;20765;-74
2021/05/22 05:21:10;;;;;;;2.50;1.10;;;;;;;11.45;83.59;99707.53;5010535;28;20225;-74
2021/05/22 05:23:36;;;;;;;1.20;1.10;;;;;;;11.44;83.66;99708.47;5002619;28;20291;-73
2021/05/22 05:26:03;;;;;;;1.57;0.87;;;;;;;11.43;83.39;99706.75;5009787;28;20216;-74
2021/05/22 05:28:29;;;;;;;1.50;0.90;;;;;;;11.48;84.95;99704.78;4999070;28;20288;-74
2021/05/22 05:30:55;;;;;;;0.60;0.60;;;;;;;11.54;84.38;99710.59;5007278;28;20310;-74
2021/05/22 05:33:21;;;;;;;1.20;1.10;;;;;;;11.62;84.32;99712.84;5002392;28;20263;-74
2021/05/22 05:35:49;;;;;;;1.93;1.00;;;;;;;11.68;83.26;99716.94;5006677;28;20643;-74
2021/05/22 05:38:15;;;;;;;1.10;0.90;;;;;;;11.81;84.21;99704.19;4983058;28;20211;-74
2021/05/22 05:40:40;;;;;;;0.97;0.80;;;;;;;11.88;83.01;99716.06;5009113;28;20229;-74
2021/05/22 05:43:10;;;;;;;1.20;1.10;;;;;;;11.91;81.98;99721.19;5005415;28;20205;-74
2021/05/22 05:45:36;;;;;;;1.00;0.90;;;;;;;11.95;80.21;99724.50;5005237;28;20999;-74
2021/05/22 05:48:02;;;;;;;1.13;0.90;;;;;;;11.98;80.64;99721.72;5001175;28;20570;-74
2021/05/22 05:50:28;;;;;;;0.83;0.80;;;;;;;11.95;80.50;99720.09;5012491;28;20233;-74
2021/05/22 05:52:54;;;;;;;2.80;1.03;;;;;;;12.09;80.41;99720.31;5000736;28;20200;-73
2021/05/22 05:55:20;;;;;;;1.20;0.90;;;;;;;12.33;79.43;99727.94;4994737;28;20292;-74
2021/05/22 05:57:46;;;;;;;1.53;0.90;;;;;;;12.40;78.89;99721.47;4999217;28;20208;-74
2021/05/22 06:00:14;;;;;;;1.60;1.10;;;;;;;12.53;79.64;99724.34;5013883;28;20600;-74
2021/05/22 06:02:40;;;;;;;1.20;0.83;;;;;;;12.65;78.13;99721.13;4999207;28;20215;-74
2021/05/22 06:05:07;;;;;;;1.07;0.97;;;;;;;12.68;77.49;99726.22;5016546;28;20206;-73
2021/05/22 06:07:33;;;;;;;0.90;0.70;;;;;;;12.62;76.27;99731.72;5001305;28;20211;-74
2021/05/22 06:09:59;;;;;;;0.97;0.70;;;;;;;12.73;77.96;99727.75;4987632;28;20227;-73
2021/05/22 06:12:25;;;;;;;1.07;0.83;;;;;;;12.78;76.04;99736.22;5002646;28;20204;-74
2021/05/22 06:14:55;;;;;;;0.90;0.70;;;;;;;12.89;76.80;99733.91;4997994;28;20735;-74
2021/05/22 06:17:22;;;;;;;1.20;1.00;;;;;;;13.06;77.67;99728.66;4983530;28;20297;-74
2021/05/22 06:19:48;;;;;;;0.60;0.60;;;;;;;13.13;76.04;99738.84;4992866;28;20721;-73
2021/05/22 06:22:14;;;;;;;0.80;0.80;;;;;;;13.13;75.34;99747.53;5002698;28;20299;-74
2021/05/22 06:24:40;;;;;;;1.57;0.70;;;;;;;13.17;76.29;99743.81;5003103;28;20726;-74
2021/05/22 06:27:06;;;;;;;0.93;0.80;;;;;;;13.13;75.83;99747.53;4999552;28;20616;-74
2021/05/22 06:29:32;;;;;;;0.80;0.80;;;;;;;13.12;74.81;99748.47;4988325;28;20221;-73
2021/05/22 06:31:58;;;;;;;1.03;0.80;;;;;;;13.13;74.94;99750.16;5001304;28;20750;-73
2021/05/22 06:34:24;;;;;;;1.33;0.80;;;;;;;13.15;75.23;99752.69;5008359;28;20238;-74
2021/05/22 06:36:51;;;;;;;1.70;0.90;;;;;;;13.05;75.30;99757.53;4999146;28;20196;-74
2021/05/22 06:39:17;;;;;;;1.60;0.87;;;;;;;13.04;76.30;99751.47;5007257;28;20318;-74
2021/05/22 06:41:43;;;;;;;3.07;0.80;;;;;;;12.95;75.53;99761.56;4999615;28;20606;-74
2021/05/22 06:44:13;;;;;;;0.70;0.70;;;;;;;12.96;76.15;99760.63;4989541;28;20633;-74
2021/05/22 06:46:48;;;;;;;1.90;0.70;;;;;;;12.94;75.32;99762.47;4988878;28;20223;-74
2021/05/22 06:49:14;;;;;;;2.13;0.90;;;;;;;12.92;75.96;99762.53;5005280;28;20794;-73
2021/05/22 06:51:41;;;;;;;1.20;0.90;;;;;;;12.90;77.27;99764.38;4986927;28;20246;-74
2021/05/22 06:54:07;;;;;;;1.50;0.90;;;;;;;12.81;77.97;99768.31;5003106;28;20201;-73
2021/05/22 06:56:33;;;;;;;3.27;0.90;;;;;;;12.75;79.03;99768.63;5003425;28;20203;-74
2021/05/22 06:58:59;;;;;;;1.20;0.80;;;;;;;12.83;80.75;99757.75;4987020;28;20215;-74
2021/05/22 07:01:26;;;;;;;1.20;0.70;;;;;;;12.79;79.40;99766.69;5001332;28;20227;-74
2021/05/22 07:03:53;;;;;;;1.17;0.90;;;;;;;12.71;79.75;99766.22;5002234;28;20204;-74
2021/05/22 07:06:21;;;;;;;0.80;0.70;;;;;;;12.57;80.57;99764.25;5003095;28;20241;-74
2021/05/22 07:08:48;;;;;;;0.60;0.60;;;;;;;12.29;80.83;99765.56;5007407;28;20557;-74
2021/05/22 07:11:15;;;;;;;1.30;0.80;;;;;;;12.03;82.33;99785.06;4983822;28;20653;-73
2021/05/22 07:13:41;;;;;;;1.23;0.73;;;;;;;11.67;85.41;99791.00;5006423;28;20608;-73
2021/05/22 07:16:07;;;;;;;1.47;0.77;;;;;;;11.40;87.80;99793.00;5003530;28;20212;-74
2021/05/22 07:18:33;;;;;;;0.87;0.70;;;;;;;11.26;89.84;99786.63;5003648;28;20211;-74
2021/05/22 07:20:59;;;;;;;1.67;0.80;;;;;;;11.28;92.29;99786.56;4986161;28;20230;-74
2021/05/22 07:23:25;;;;;;;1.83;0.83;;;;;;;11.27;93.40;99784.88;4984130;28;20238;-75
2021/05/22 07:25:52;;;;;;;0.93;0.80;;;;;;;11.26;93.58;99784.03;4986685;28;20222;-74
2021/05/22 07:28:18;;;;;;;2.50;0.80;;;;;;;11.23;93.70;99767.66;5002653;28;20219;-74
2021/05/22 07:30:44;;;;;;;1.47;0.80;;;;;;;11.35;95.04;99767.13;4990323;28;20223;-74
2021/05/22 07:33:10;;;;;;;1.37;1.00;;;;;;;11.44;95.21;99771.09;5003976;28;20579;-74
2021/05/22 07:35:36;;;;;;;1.03;0.93;;;;;;;11.51;95.28;99778.59;5001832;28;20573;-74
2021/05/22 07:38:02;;;;;;;2.70;1.10;;;;;;;11.61;96.02;99781.66;4986314;28;20197;-74
2021/05/22 07:40:28;;;;;;;1.20;0.90;;;;;;;11.77;96.13;99776.59;5004051;28;20242;-74
2021/05/22 07:42:55;;;;;;;2.03;1.10;;;;;;;11.88;95.96;99778.75;5002546;28;20209;-74
2021/05/22 07:45:21;;;;;;;1.53;1.00;;;;;;;12.06;95.99;99779.69;4992171;28;20184;-74
2021/05/22 07:47:47;;;;;;;1.33;0.97;;;;;;;12.06;93.24;99795.38;4983110;28;20205;-74
2021/05/22 07:50:13;;;;;;;0.80;0.77;;;;;;;12.12;92.81;99790.72;5000650;28;20295;-74
2021/05/22 07:52:40;;;;;;;1.97;1.00;;;;;;;12.20;92.57;99786.91;5000762;28;20201;-74
2021/05/22 07:55:07;;;;;;;2.77;0.90;;;;;;;12.30;91.41;99798.63;4985637;28;20743;-74
2021/05/22 07:57:34;;;;;;;1.60;0.93;;;;;;;12.39;91.88;99789.53;5001153;28;20216;-74
2021/05/22 08:00:00;;;;;;;1.93;0.90;;;;;;;12.35;90.88;99786.19;5002755;28;20215;-74
2021/05/22 08:02:26;;;;;;;4.57;0.83;;;;;;;12.51;91.55;99788.94;5000275;28;20209;-74
2021/05/22 08:04:52;;;;;;;1.00;0.77;;;;;;;12.57;88.78;99793.03;5002529;28;20285;-74
2021/05/22 08:07:18;;;;;;;2.10;0.67;;;;;;;12.64;88.39;99797.03;4981503;28;20227;-75
2021/05/22 08:09:44;;;;;;;1.07;0.77;;;;;;;12.77;87.85;99795.53;4988404;28;20245;-73
2021/05/22 08:12:10;;;;;;;1.43;0.70;;;;;;;12.82;85.91;99793.56;4996288;28;20259;-74
2021/05/22 08:14:37;;;;;;;1.60;0.70;;;;;;;13.10;87.19;99792.16;5004407;28;20194;-74
2021/05/22 08:17:03;;;;;;;3.40;0.90;;;;;;;13.38;85.01;99791.66;4997294;28;20205;-74
2021/05/22 08:19:29;;;;;;;0.93;0.60;;;;;;;13.48;82.66;99799.91;4984947;28;20759;-74
2021/05/22 08:21:55;;;;;;;1.07;0.60;;;;;;;13.54;83.74;99801.34;4986420;28;20243;-73
2021/05/22 08:24:21;;;;;;;1.53;0.70;;;;;;;13.40;81.27;99800.31;4980763;28;20753;-74
2021/05/22 08:26:47;;;;;;;0.60;0.60;;;;;;;13.39;82.32;99805.63;5000536;28;20243;-74
2021/05/22 08:29:14;;;;;;;1.60;0.70;;;;;;;13.49;80.44;99803.34;4994713;28;20198;-74
2021/05/22 08:31:40;;;;;;;1.37;0.70;;;;;;;13.47;79.87;99797.34;4998198;28;20200;-74
2021/05/22 08:34:07;;;;;;;2.63;0.67;;;;;;;13.32;80.03;99804.25;4991834;28;20271;-74
2021/05/22 08:36:33;;;;;;;0.80;0.77;;;;;;;13.48;79.33;99797.28;4998907;28;20199;-74
2021/05/22 08:38:59;;;;;;;1.30;0.70;;;;;;;13.70;78.15;99804.03;5002846;28;20201;-74
2021/05/22 08:41:26;;;;;;;2.90;0.70;;;;;;;13.94;78.05;99801.91;4997159;28;20228;-75
2021/05/22 08:43:52;;;;;;;3.60;0.97;;;;;;;13.98;75.68;99801.66;4985389;28;20223;-74
2021/05/22 08:46:20;;;;;;;2.53;0.80;;;;;;;14.05;76.00;99806.56;4998217;28;20298;-74
2021/05/22 08:48:47;;;;;;;1.07;0.60;;;;;;;14.30;77.89;99798.22;5009022;28;20188;-74
2021/05/22 08:51:16;;;;;;;1.20;0.60;;;;;;;14.33;73.03;99809.38;4985788;28;20221;-74
2021/05/22 08:53:42;;;;;;;2.63;0.80;;;;;;;14.31;74.13;99808.63;5011141;28;20743;-74
2021/05/22 08:56:08;;;;;;;2.43;1.27;;;;;;;14.55;72.96;99806.44;4994809;28;20636;-74
2021/05/22 08:58:34;;;;;;;2.00;0.90;;;;;;;14.72;71.34;99805.53;5002930;28;20223;-74
2021/05/22 09:01:01;;;;;;;2.17;0.60;;;;;;;14.88;71.72;99805.50;4998146;28;20270;-74
2021/05/22 09:03:28;;;;;;;2.33;0.50;;;;;;;15.02;68.21;99811.72;5004301;28;20208;-75
2021/05/22 09:05:55;;;;;;;1.27;0.70;;;;;;;14.92;65.96;99816.66;4993991;28;20944;-74
2021/05/22 09:08:21;;;;;;;2.70;0.57;;;;;;;14.70;66.03;99814.41;5008281;28;20244;-74
2021/05/22 09:10:49;;;;;;;0.70;0.50;;;;;;;14.58;66.67;99814.16;4998748;28;20232;-74
2021/05/22 09:13:20;;;;;;;5.27;0.60;;;;;;;14.83;68.27;99823.28;5002826;28;20224;-75
2021/05/22 09:15:48;;;;;;;3.80;0.80;;;;;;;14.56;63.41;99823.00;4997712;28;20581;-75
2021/05/22 09:18:16;;;;;;;2.37;0.70;;;;;;;14.42;64.24;99818.50;5002009;28;20202;-74
2021/05/22 09:20:45;;;;;;;1.47;0.80;;;;;;;14.58;65.95;99811.53;4998234;28;20779;-75
2021/05/22 09:23:12;;;;;;;0.90;0.60;;;;;;;14.49;63.22;99825.16;5015476;28;20203;-75
2021/05/22 09:25:41;;;;;;;3.10;0.93;;;;;;;14.68;63.61;99818.88;5000279;28;20220;-74
2021/05/22 09:28:09;;;;;;;3.73;0.60;;;;;;;14.67;62.94;99817.19;5011691;28;20426;-75
2021/05/22 09:30:37;;;;;;;2.37;0.87;;;;;;;14.96;64.12;99824.25;4998888;28;20226;-74
2021/05/22 09:33:04;;;;;;;1.63;0.50;;;;;;;15.19;63.24;99824.72;5011184;28;20207;-74
2021/05/22 09:35:30;;;;;;;1.97;0.70;;;;;;;15.49;64.80;99813.34;4999018;28;20216;-74
2021/05/22 09:37:58;;;;;;;1.30;0.77;;;;;;;15.28;61.42;99818.94;5011462;28;20641;-74
2021/05/22 09:40:25;;;;;;;1.43;0.70;;;;;;;15.19;62.95;99818.63;4999882;28;20268;-74
2021/05/22 09:42:54;;;;;;;2.63;0.77;;;;;;;15.20;61.13;99823.81;5004424;28;20775;-75
2021/05/22 09:45:38;;;;;;;1.27;0.70;;;;;;;15.07;62.10;99814.94;4997324;28;20691;-74
2021/05/22 09:48:14;;;;;;;1.50;0.80;;;;;;;14.95;61.48;99817.34;5000170;28;20210;-74
2021/05/22 09:50:42;;;;;;;1.77;0.70;;;;;;;15.10;61.99;99818.22;5005159;28;20773;-74
2021/05/22 09:53:24;;;;;;;0.40;0.40;;;;;;;14.71;60.12;99813.47;4998625;28;20206;-75
2021/05/22 09:56:10;;;;;;;3.23;0.83;;;;;;;14.65;61.43;99819.06;5004629;28;20197;-74
2021/05/22 09:58:40;;;;;;;3.03;0.93;;;;;;;14.66;59.36;99815.50;4995094;28;20282;-74
2021/05/22 10:01:07;;;;;;;1.37;0.73;;;;;;;14.55;61.77;99814.28;5001510;28;20224;-74
2021/05/22 10:03:33;;;;;;;1.60;0.80;;;;;;;14.47;62.02;99813.88;4999488;28;20208;-74
2021/05/22 10:05:59;;;;;;;1.43;0.50;;;;;;;14.33;61.12;99825.09;5002622;28;20217;-74
2021/05/22 10:08:25;;;;;;;2.83;0.50;;;;;;;14.39;62.78;99816.91;4996962;28;20208;-74
2021/05/22 10:10:55;;;;;;;3.40;0.80;;;;;;;14.89;61.97;99807.19;4999205;28;20216;-74
2021/05/22 10:13:22;;;;;;;2.63;0.67;;;;;;;15.43;62.58;99811.09;4994709;28;20213;-74
2021/05/22 10:15:50;;;;;;;1.37;0.70;;;;;;;15.09;59.33;99818.31;4998958;28;20268;-75
2021/05/22 10:18:17;;;;;;;1.10;0.60;;;;;;;14.80;58.77;99823.44;4986615;28;20201;-75
2021/05/22 10:20:44;;;;;;;1.73;0.70;;;;;;;14.66;60.58;99820.75;4976595;28;20236;-77
2021/05/22 10:23:10;;;;;;;2.07;0.73;;;;;;;14.72;60.85;99813.41;4997616;28;20674;-74
2021/05/22 10:25:36;;;;;;;2.63;0.60;;;;;;;15.07;60.21;99812.31;4999873;28;20209;-75
2021/05/22 10:28:03;;;;;;;1.87;0.50;;;;;;;15.40;61.90;99817.38;4997384;28;20200;-75
2021/05/22 10:30:29;;;;;;;0.63;0.50;;;;;;;15.88;58.27;99825.06;5001525;28;20283;-75
2021/05/22 10:33:00;;;;;;;2.03;0.70;;;;;;;16.09;56.25;99828.16;4995786;28;20203;-75
2021/05/22 10:35:26;;;;;;;1.60;0.50;;;;;;;16.24;54.13;99831.63;4998154;28;20201;-75
2021/05/22 10:37:53;;;;;;;2.17;0.93;;;;;;;16.51;57.15;99828.22;4997421;28;20373;-75
2021/05/22 10:40:21;;;;;;;0.97;0.83;;;;;;;16.01;54.25;99846.22;5007977;28;20245;-75
2021/05/22 10:42:51;;;;;;;1.63;0.40;;;;;;;15.86;54.66;99825.16;4996242;28;20220;-75
2021/05/22 10:45:25;;;;;;;0.53;0.40;;;;;;;15.81;56.42;99835.13;4999765;28;20925;-75
2021/05/22 10:47:51;;;;;;;2.40;0.60;;;;;;;15.87;54.52;99844.41;4998270;28;20222;-75
2021/05/22 10:50:33;;;;;;;2.60;0.70;;;;;;;16.25;57.05;99831.56;5011075;28;20222;-75
2021/05/22 10:53:17;;;;;;;2.27;0.80;;;;;;;16.56;54.20;99834.03;5000317;28;20228;-75
2021/05/22 10:55:43;;;;;;;1.73;0.50;;;;;;;16.48;52.49;99831.91;4999805;28;20204;-75
2021/05/22 10:58:11;;;;;;;0.90;0.47;;;;;;;16.62;52.16;99826.59;4998507;28;20206;-75
2021/05/22 11:00:38;;;;;;;1.80;0.50;;;;;;;16.66;49.09;99849.13;5004186;28;20231;-75
2021/05/22 11:03:10;;;;;;;1.37;0.60;;;;;;;16.30;49.43;99849.66;5006847;28;20839;-75
2021/05/22 11:05:39;;;;;;;0.57;0.50;;;;;;;16.22;50.47;99851.94;5000013;28;20308;-74
2021/05/22 11:08:30;;;;;;;1.43;0.63;;;;;;;16.44;47.99;99843.53;5003085;28;20203;-75
2021/05/22 11:11:00;;;;;;;1.73;0.70;;;;;;;16.32;48.58;99842.50;5000376;28;20712;-75
2021/05/22 11:13:38;;;;;;;2.47;0.67;;;;;;;15.79;49.11;99849.28;5006322;28;20203;-75
2021/05/22 11:16:06;;;;;;;1.07;0.50;;;;;;;15.51;50.53;99851.75;4998518;28;20199;-75
2021/05/22 11:19:04;;;;;;;1.70;0.70;;;;;;;15.90;51.83;99841.63;5008858;28;20195;-75
2021/05/22 11:21:30;;;;;;;1.97;0.70;;;;;;;16.26;50.46;99840.28;5000919;28;20260;-75
2021/05/22 11:24:17;;;;;;;0.40;0.40;;;;;;;16.56;51.86;99831.41;5009623;28;20203;-74
2021/05/22 11:27:02;;;;;;;2.80;0.63;;;;;;;16.38;50.86;99838.66;5000721;28;20861;-75
2021/05/22 11:29:55;;;;;;;0.60;0.47;;;;;;;16.03;48.10;99842.53;5005499;28;20204;-75
2021/05/22 11:32:47;;;;;;;1.80;0.70;;;;;;;16.03;49.22;99844.31;4998035;28;20200;-77
2021/05/22 11:35:46;;;;;;;2.37;0.63;;;;;;;16.39;49.93;99843.84;4994205;28;20677;-76
2021/05/22 11:38:34;;;;;;;1.97;0.60;;;;;;;16.58;48.01;99838.25;5004214;28;20192;-77